Time;durP1;ratioP1;P1;durP2;ratioP2;P2;SDS_P1;SDS_P2;PMS_P1;PMS_P2;Temp;Humidity;BMP_temperature;BMP_pressure;BME280_temperature;BME280_humidity;BME280_pressure;Samples;Min_cycle;Max_cycle;Signal;HPM_P1;HPM_P2
2021/10/28 00:14:39;;;;;;;4.03;2.90;;;;;16.70;101786.00;;;;5104142;28;20298;-83
2021/10/28 00:17:10;;;;;;;3.75;3.33;;;;;16.70;101791.00;;;;5104393;28;20198;-83
2021/10/28 00:19:40;;;;;;;5.10;3.28;;;;;16.60;101784.00;;;;5103932;28;20292;-83
2021/10/28 00:22:09;;;;;;;5.40;2.97;;;;;16.60;101789.00;;;;5099657;28;20200;-83
2021/10/28 00:24:37;;;;;;;3.50;3.20;;;;;16.60;101787.00;;;;5102929;28;20193;-82
2021/10/28 00:27:05;;;;;;;3.35;3.05;;;;;16.60;101790.00;;;;5091102;28;20205;-83
2021/10/28 00:29:33;;;;;;;5.50;3.35;;;;;16.60;101792.00;;;;5089342;28;20213;-82
2021/10/28 00:32:03;;;;;;;4.38;3.90;;;;;16.60;101786.00;;;;5090213;28;20255;-82
2021/10/28 00:34:30;;;;;;;4.30;3.58;;;;;16.60;101786.00;;;;5077267;28;20232;-83
2021/10/28 00:36:59;;;;;;;4.47;2.97;;;;;16.60;101788.00;;;;5082287;28;20202;-83
2021/10/28 00:39:26;;;;;;;3.78;2.63;;;;;16.60;101781.00;;;;5071307;28;20653;-83
2021/10/28 00:41:54;;;;;;;4.03;3.10;;;;;16.50;101783.00;;;;5084311;28;20206;-82
2021/10/28 00:44:21;;;;;;;3.92;3.08;;;;;16.50;101783.00;;;;5072977;28;20199;-83
2021/10/28 00:46:49;;;;;;;3.78;3.00;;;;;16.50;101774.00;;;;5090211;28;20221;-83
2021/10/28 00:49:16;;;;;;;4.03;3.05;;;;;16.50;101773.00;;;;5089784;28;20198;-82
2021/10/28 00:51:44;;;;;;;3.42;3.00;;;;;16.50;101771.00;;;;5090001;28;20198;-83
2021/10/28 00:54:17;;;;;;;3.78;3.03;;;;;16.40;101767.00;;;;5089608;28;20226;-83
2021/10/28 00:56:45;;;;;;;4.00;3.30;;;;;16.50;101774.00;;;;5074497;28;20202;-83
2021/10/28 00:59:13;;;;;;;3.83;3.10;;;;;16.50;101774.00;;;;5089096;28;20198;-83
2021/10/28 01:01:41;;;;;;;3.38;3.03;;;;;16.40;101775.00;;;;5089740;28;20194;-83
2021/10/28 01:04:10;;;;;;;3.30;2.75;;;;;16.40;101777.00;;;;5089744;28;20280;-83
2021/10/28 01:06:39;;;;;;;4.47;3.42;;;;;16.40;101769.00;;;;5090540;28;20229;-83
2021/10/28 01:09:07;;;;;;;3.55;2.80;;;;;16.40;101781.00;;;;5089079;28;20204;-83
2021/10/28 01:11:36;;;;;;;3.67;2.67;;;;;16.40;101773.00;;;;5089081;28;20623;-83
2021/10/28 01:14:03;;;;;;;3.60;3.10;;;;;16.40;101771.00;;;;5089128;28;20636;-82
2021/10/28 01:16:30;;;;;;;4.80;3.47;;;;;16.40;101768.00;;;;5089423;28;20209;-83
2021/10/28 01:18:58;;;;;;;3.60;2.88;;;;;16.40;101770.00;;;;5089197;28;20202;-82
2021/10/28 01:21:27;;;;;;;5.15;3.10;;;;;16.40;101773.00;;;;5085578;28;20247;-82
2021/10/28 01:23:54;;;;;;;5.22;2.90;;;;;16.40;101773.00;;;;5088402;28;20214;-83
2021/10/28 01:26:21;;;;;;;3.95;3.40;;;;;16.40;101775.00;;;;5088711;28;20190;-83
2021/10/28 01:28:55;;;;;;;4.25;3.47;;;;;16.30;101771.00;;;;5089281;28;20202;-83
2021/10/28 01:31:25;;;;;;;3.53;3.17;;;;;16.40;101770.00;;;;5086036;28;20240;-83
2021/10/28 01:33:54;;;;;;;3.80;2.88;;;;;16.30;101770.00;;;;5088876;28;20193;-83
2021/10/28 01:36:22;;;;;;;3.92;3.00;;;;;16.40;101772.00;;;;5089687;28;20202;-83
2021/10/28 01:38:52;;;;;;;5.97;3.20;;;;;16.30;101772.00;;;;5088596;28;20198;-83
2021/10/28 01:41:20;;;;;;;4.28;2.95;;;;;16.30;101768.00;;;;5086372;28;20193;-82
2021/10/28 01:43:47;;;;;;;3.85;3.10;;;;;16.30;101767.00;;;;5089152;28;20205;-83
2021/10/28 01:46:15;;;;;;;4.35;3.35;;;;;16.30;101752.00;;;;5089237;28;20202;-82
2021/10/28 01:48:42;;;;;;;5.95;4.30;;;;;16.30;101754.00;;;;5088487;28;20198;-82
2021/10/28 01:51:11;;;;;;;10.32;3.95;;;;;16.30;101761.00;;;;5085622;28;20206;-83
2021/10/28 01:53:39;;;;;;;3.65;3.10;;;;;16.30;101759.00;;;;5077854;28;20198;-82
2021/10/28 01:56:10;;;;;;;5.47;3.22;;;;;16.30;101760.00;;;;5076169;28;20225;-82
2021/10/28 01:58:37;;;;;;;3.63;3.08;;;;;16.30;101749.00;;;;5085005;28;20199;-82
2021/10/28 02:01:06;;;;;;;4.32;2.95;;;;;16.30;101752.00;;;;5084207;28;20195;-83
2021/10/28 02:03:33;;;;;;;5.35;3.85;;;;;16.30;101752.00;;;;5090003;28;20206;-83
2021/10/28 02:06:02;;;;;;;5.40;3.15;;;;;16.30;101753.00;;;;5087721;28;20218;-83
2021/10/28 02:08:29;;;;;;;3.85;3.20;;;;;16.30;101755.00;;;;5089224;28;20198;-82
2021/10/28 02:10:57;;;;;;;3.53;3.00;;;;;16.30;101747.00;;;;5083255;28;20213;-82
2021/10/28 02:13:25;;;;;;;3.72;2.80;;;;;16.20;101746.00;;;;5089049;28;20210;-83
2021/10/28 02:15:53;;;;;;;5.82;3.75;;;;;16.20;101737.00;;;;5088910;28;20225;-82
2021/10/28 02:18:21;;;;;;;3.97;2.95;;;;;16.20;101732.00;;;;5084388;28;20195;-82
2021/10/28 02:20:48;;;;;;;4.47;3.58;;;;;16.20;101729.00;;;;5080354;28;20210;-83
2021/10/28 02:23:16;;;;;;;4.65;3.20;;;;;16.20;101725.00;;;;5087408;28;20198;-83
2021/10/28 02:25:43;;;;;;;4.60;2.90;;;;;16.20;101722.00;;;;5083926;28;20198;-83
2021/10/28 02:28:10;;;;;;;5.88;3.13;;;;;16.20;101727.00;;;;5088499;28;20194;-83
2021/10/28 02:30:39;;;;;;;3.80;3.17;;;;;16.10;101718.00;;;;5087717;28;20198;-83
2021/10/28 02:33:06;;;;;;;5.70;3.15;;;;;16.10;101722.00;;;;5071950;28;20191;-82
2021/10/28 02:35:34;;;;;;;4.10;3.50;;;;;16.10;101714.00;;;;5087675;28;20719;-83
2021/10/28 02:38:02;;;;;;;3.88;3.50;;;;;16.10;101712.00;;;;5088479;28;20210;-83
2021/10/28 02:40:29;;;;;;;4.88;3.65;;;;;16.10;101714.00;;;;5087075;28;20198;-82
2021/10/28 02:42:57;;;;;;;3.67;3.00;;;;;16.10;101711.00;;;;5088004;28;20197;-83
2021/10/28 02:45:24;;;;;;;4.40;3.13;;;;;16.10;101698.00;;;;5087871;28;20201;-82
2021/10/28 02:47:54;;;;;;;6.10;3.70;;;;;16.10;101699.00;;;;5088271;28;20206;-82
2021/10/28 02:50:23;;;;;;;4.20;3.42;;;;;16.10;101694.00;;;;5087912;28;20199;-82
2021/10/28 02:52:50;;;;;;;4.15;3.38;;;;;16.10;101699.00;;;;5088119;28;20194;-83
2021/10/28 02:55:18;;;;;;;4.63;3.30;;;;;16.10;101697.00;;;;5077189;28;20225;-82
2021/10/28 02:57:45;;;;;;;4.28;3.42;;;;;16.00;101691.00;;;;5088913;28;20206;-82
2021/10/28 03:00:13;;;;;;;4.47;3.97;;;;;16.00;101692.00;;;;5077838;28;20281;-82
2021/10/28 03:02:40;;;;;;;5.05;3.35;;;;;16.00;101690.00;;;;5069033;28;20325;-83
2021/10/28 03:05:10;;;;;;;5.00;3.60;;;;;16.00;101684.00;;;;5073544;28;20314;-83
2021/10/28 03:07:38;;;;;;;5.38;3.58;;;;;16.00;101682.00;;;;5083630;28;20210;-83
2021/10/28 03:10:09;;;;;;;3.70;3.15;;;;;16.00;101681.00;;;;5086257;28;20194;-82
2021/10/28 03:12:40;;;;;;;8.45;4.22;;;;;16.00;101684.00;;;;5087307;28;20270;-82
2021/10/28 03:15:11;;;;;;;5.72;3.25;;;;;16.00;101678.00;;;;5087596;28;20241;-82
2021/10/28 03:17:45;;;;;;;4.25;3.05;;;;;16.00;101686.00;;;;5087569;28;20198;-83
2021/10/28 03:25:44;;;;;;;4.90;3.42;;;;;15.90;101669.00;;;;5080846;28;20581;-82
2021/10/28 03:28:16;;;;;;;5.32;3.38;;;;;15.80;101671.00;;;;5087346;28;20197;-83
2021/10/28 03:30:43;;;;;;;4.00;2.88;;;;;15.90;101672.00;;;;5087141;28;20279;-82
2021/10/28 03:33:13;;;;;;;4.47;2.92;;;;;15.90;101670.00;;;;5087663;28;20195;-83
2021/10/28 03:35:45;;;;;;;3.55;3.08;;;;;15.80;101670.00;;;;5072310;28;20229;-83
2021/10/28 03:38:19;;;;;;;5.03;3.92;;;;;15.80;101663.00;;;;5072241;28;20206;-82
2021/10/28 04:06:18;;;;;;;3.28;2.90;;;;;15.60;101649.00;;;;5079362;28;20227;-83
2021/10/28 04:17:40;;;;;;;5.00;3.45;;;;;15.50;101646.00;;;;5048767;28;20255;-82
2021/10/28 04:20:25;;;;;;;5.03;3.30;;;;;15.50;101645.00;;;;5090329;28;20201;-83
2021/10/28 04:28:56;;;;;;;3.53;2.75;;;;;15.50;101620.00;;;;5048320;28;20262;-84
2021/10/28 04:31:28;;;;;;;4.97;3.28;;;;;15.40;101622.00;;;;5048198;28;20200;-82
2021/10/28 04:33:56;;;;;;;5.13;3.45;;;;;15.40;101623.00;;;;5060096;28;20664;-82
2021/10/28 04:36:28;;;;;;;4.47;3.38;;;;;15.40;101622.00;;;;5081943;28;20247;-83
2021/10/28 04:38:55;;;;;;;5.50;3.92;;;;;15.40;101621.00;;;;5080495;28;20195;-83
2021/10/28 04:41:25;;;;;;;4.63;3.22;;;;;15.40;101626.00;;;;5090858;28;20198;-83
2021/10/28 04:43:52;;;;;;;4.85;3.30;;;;;15.40;101627.00;;;;5090796;28;20194;-83
2021/10/28 04:46:20;;;;;;;4.43;2.80;;;;;15.40;101627.00;;;;5090556;28;20218;-83
2021/10/28 04:48:48;;;;;;;4.15;3.10;;;;;15.30;101619.00;;;;5089463;28;20746;-83
2021/10/28 04:51:15;;;;;;;5.22;3.60;;;;;15.30;101628.00;;;;5082954;28;20660;-82
2021/10/28 04:53:43;;;;;;;4.45;3.75;;;;;15.30;101622.00;;;;5082768;28;20191;-83
2021/10/28 04:56:10;;;;;;;3.55;3.17;;;;;15.30;101628.00;;;;5089279;28;20229;-82
2021/10/28 04:58:39;;;;;;;6.13;4.03;;;;;15.30;101621.00;;;;5087082;28;21084;-83
2021/10/28 05:01:06;;;;;;;4.85;3.30;;;;;15.30;101620.00;;;;5086462;28;20198;-81
2021/10/28 05:03:35;;;;;;;4.47;3.42;;;;;15.20;101624.00;;;;5090944;28;20190;-82
2021/10/28 05:06:02;;;;;;;4.82;3.33;;;;;15.20;101617.00;;;;5092850;28;20211;-81
2021/10/28 05:08:30;;;;;;;5.43;3.88;;;;;15.20;101604.00;;;;5090178;28;20234;-84
2021/10/28 05:10:57;;;;;;;4.38;3.50;;;;;15.20;101615.00;;;;5090029;28;20699;-82
2021/10/28 05:13:24;;;;;;;4.53;3.50;;;;;15.20;101618.00;;;;5088479;28;20197;-83
2021/10/28 05:15:54;;;;;;;3.63;3.10;;;;;15.20;101619.00;;;;5079721;28;20661;-82
2021/10/28 05:18:23;;;;;;;4.57;3.53;;;;;15.20;101616.00;;;;5082187;28;20289;-83
2021/10/28 05:20:51;;;;;;;5.07;3.70;;;;;15.20;101617.00;;;;5093564;28;20197;-82
2021/10/28 05:23:19;;;;;;;4.57;3.80;;;;;15.20;101621.00;;;;5086605;28;20195;-82
2021/10/28 05:25:47;;;;;;;4.25;3.20;;;;;15.20;101615.00;;;;5090008;28;20272;-83
2021/10/28 05:28:15;;;;;;;4.28;3.25;;;;;15.20;101622.00;;;;5082474;28;20197;-82
2021/10/28 05:30:42;;;;;;;5.45;3.50;;;;;15.20;101622.00;;;;5080283;28;20197;-82
2021/10/28 05:33:11;;;;;;;3.35;3.00;;;;;15.20;101618.00;;;;5081098;28;20202;-82
2021/10/28 05:35:38;;;;;;;7.07;3.88;;;;;15.20;101608.00;;;;5079544;28;20229;-82
2021/10/28 05:38:05;;;;;;;4.38;3.47;;;;;15.20;101618.00;;;;5077764;28;20741;-82
2021/10/28 05:40:33;;;;;;;5.05;4.18;;;;;15.20;101608.00;;;;5083760;28;20198;-83
2021/10/28 05:43:01;;;;;;;4.90;3.95;;;;;15.20;101616.00;;;;5088139;28;20202;-84
2021/10/28 05:45:29;;;;;;;4.60;3.33;;;;;15.20;101609.00;;;;5087102;28;21335;-84
2021/10/28 05:47:56;;;;;;;4.10;3.47;;;;;15.20;101608.00;;;;5088415;28;20744;-83
2021/10/28 05:50:25;;;;;;;9.77;3.67;;;;;15.20;101605.00;;;;5081040;28;20195;-81
2021/10/28 05:52:55;;;;;;;5.50;3.70;;;;;15.20;101607.00;;;;5084570;28;20652;-82
2021/10/28 05:55:24;;;;;;;4.93;3.53;;;;;15.20;101600.00;;;;5077253;28;20723;-83
2021/10/28 05:57:52;;;;;;;3.60;3.17;;;;;15.20;101601.00;;;;5087369;28;20194;-85
2021/10/28 06:00:20;;;;;;;4.07;3.22;;;;;15.20;101601.00;;;;5083015;28;20676;-83
2021/10/28 06:02:47;;;;;;;6.55;3.60;;;;;15.20;101597.00;;;;5079709;28;20202;-82
2021/10/28 06:05:14;;;;;;;4.07;3.65;;;;;15.20;101602.00;;;;5081655;28;20229;-82
2021/10/28 06:07:43;;;;;;;4.78;3.85;;;;;15.20;101597.00;;;;5074720;28;20214;-81
2021/10/28 06:10:15;;;;;;;5.50;4.20;;;;;15.20;101607.00;;;;5072258;28;20248;-81
2021/10/28 06:12:44;;;;;;;5.10;3.97;;;;;15.20;101600.00;;;;5073357;28;20645;-82
2021/10/28 06:15:12;;;;;;;5.20;3.83;;;;;15.20;101603.00;;;;5072367;28;20233;-82
2021/10/28 06:17:47;;;;;;;4.45;3.30;;;;;15.20;101599.00;;;;5083703;28;20198;-83
2021/10/28 06:20:15;;;;;;;4.53;3.60;;;;;15.20;101592.00;;;;5071272;28;20276;-83
2021/10/28 06:22:43;;;;;;;5.63;4.43;;;;;15.20;101598.00;;;;5074803;28;20668;-81
2021/10/28 06:25:11;;;;;;;6.20;4.22;;;;;15.20;101598.00;;;;5090695;28;20213;-80
2021/10/28 06:27:39;;;;;;;5.88;3.75;;;;;15.20;101596.00;;;;5089152;28;20198;-80
2021/10/28 06:30:07;;;;;;;4.43;3.28;;;;;15.20;101587.00;;;;5090932;28;20209;-80
2021/10/28 06:32:36;;;;;;;4.88;4.03;;;;;15.20;101582.00;;;;5084938;28;20194;-80
2021/10/28 06:35:04;;;;;;;5.15;3.78;;;;;15.20;101587.00;;;;5091029;28;20210;-80
2021/10/28 06:37:32;;;;;;;5.07;4.28;;;;;15.10;101580.00;;;;5089173;28;20717;-81
2021/10/28 06:40:00;;;;;;;4.75;3.60;;;;;15.10;101583.00;;;;5083894;28;20687;-82
2021/10/28 06:42:28;;;;;;;4.43;3.47;;;;;15.10;101582.00;;;;5085551;28;20202;-82
2021/10/28 06:44:55;;;;;;;5.13;3.55;;;;;15.10;101590.00;;;;5086786;28;20191;-83
2021/10/28 06:47:22;;;;;;;4.40;3.70;;;;;15.10;101583.00;;;;5075705;28;20222;-82
2021/10/28 06:49:50;;;;;;;4.93;3.95;;;;;15.10;101579.00;;;;5087040;28;20695;-83
2021/10/28 06:52:17;;;;;;;5.35;3.75;;;;;15.10;101578.00;;;;5083851;28;20198;-82
2021/10/28 06:54:46;;;;;;;5.43;3.83;;;;;15.10;101589.00;;;;5081188;28;20202;-82
2021/10/28 06:57:31;;;;;;;8.10;3.83;;;;;15.10;101586.00;;;;5076488;28;20221;-83
2021/10/28 07:02:45;;;;;;;4.50;3.47;;;;;15.10;101582.00;;;;5081560;28;20587;-82
2021/10/28 07:05:12;;;;;;;6.35;3.72;;;;;15.10;101581.00;;;;5081489;28;20184;-82
2021/10/28 07:07:40;;;;;;;4.93;3.97;;;;;15.10;101582.00;;;;5070001;28;20223;-81
2021/10/28 07:10:11;;;;;;;4.82;3.83;;;;;15.10;101587.00;;;;5070162;28;20210;-83
2021/10/28 07:12:51;;;;;;;4.82;3.85;;;;;15.10;101588.00;;;;5082460;28;20206;-82
2021/10/28 07:15:23;;;;;;;6.15;4.43;;;;;15.10;101579.00;;;;5074612;28;20719;-82
2021/10/28 07:18:15;;;;;;;5.75;4.55;;;;;15.20;101584.00;;;;5077380;28;20199;-82
2021/10/28 07:21:02;;;;;;;6.43;3.65;;;;;15.20;101578.00;;;;5074651;28;20633;-82
2021/10/28 07:24:05;;;;;;;4.95;3.13;;;;;15.20;101572.00;;;;5083090;28;20656;-82
2021/10/28 07:32:27;;;;;;;5.40;4.05;;;;;15.30;101564.00;;;;5075059;28;20198;-82
2021/10/28 07:57:23;;;;;;;5.72;4.07;;;;;15.60;101568.00;;;;5089001;28;20233;-84
2021/10/28 08:16:55;;;;;;;6.78;4.72;;;;;16.00;101562.00;;;;5073642;28;20317;-83
2021/10/28 08:19:29;;;;;;;5.88;4.93;;;;;16.10;101561.00;;;;5086844;28;20229;-84
2021/10/28 08:21:57;;;;;;;6.90;5.70;;;;;16.10;101556.00;;;;5077850;28;20217;-83
2021/10/28 08:29:58;;;;;;;6.38;4.88;;;;;16.30;101541.00;;;;5088325;28;20259;-84
2021/10/28 08:32:25;;;;;;;7.57;5.32;;;;;16.30;101538.00;;;;5076145;28;20209;-84
2021/10/28 08:34:57;;;;;;;6.97;5.15;;;;;16.40;101538.00;;;;5084487;28;20202;-83
2021/10/28 08:37:30;;;;;;;8.43;5.75;;;;;16.50;101525.00;;;;5084996;28;20288;-83
2021/10/28 08:39:57;;;;;;;8.25;5.18;;;;;16.50;101528.00;;;;5074330;28;20195;-83
2021/10/28 08:42:26;;;;;;;6.72;5.25;;;;;16.60;101528.00;;;;5077321;28;20702;-83
2021/10/28 08:44:56;;;;;;;6.32;5.00;;;;;16.60;101530.00;;;;5073346;28;20203;-84
2021/10/28 08:47:26;;;;;;;7.78;5.38;;;;;16.70;101531.00;;;;5072313;28;20206;-83
2021/10/28 08:49:58;;;;;;;7.38;5.40;;;;;16.70;101528.00;;;;5072736;28;20193;-83
2021/10/28 08:55:29;;;;;;;6.45;4.93;;;;;16.90;101522.00;;;;5074349;28;20204;-84
2021/10/28 09:23:58;;;;;;;10.02;5.38;;;;;17.50;101491.00;;;;5070944;28;20748;-84
2021/10/28 09:26:32;;;;;;;6.65;4.75;;;;;17.60;101482.00;;;;5089737;28;20293;-84
2021/10/28 09:29:10;;;;;;;5.28;4.43;;;;;17.70;101477.00;;;;5085117;28;20263;-84
2021/10/28 09:31:40;;;;;;;7.75;5.28;;;;;17.80;101488.00;;;;5069934;28;20206;-84
2021/10/28 09:34:19;;;;;;;8.15;5.35;;;;;17.90;101483.00;;;;5075893;28;20256;-83
2021/10/28 09:45:49;;;;;;;7.82;5.75;;;;;18.10;101458.00;;;;5075445;28;20202;-85
2021/10/28 09:49:49;;;;;;;6.15;4.15;;;;;18.20;101452.00;;;;5068965;28;20199;-84
2021/10/28 09:51:39;;;;;;;6.43;4.93;;;;;18.40;101446.00;;;;5070094;28;20194;-83
2021/10/28 09:54:12;;;;;;;6.70;4.60;;;;;18.50;101447.00;;;;5075338;28;20194;-84
2021/10/28 09:59:30;;;;;;;7.03;4.82;;;;;18.70;101450.00;;;;5071539;28;20238;-84
2021/10/28 10:02:13;;;;;;;6.53;4.53;;;;;18.80;101441.00;;;;5077031;28;20195;-84
2021/10/28 10:04:41;;;;;;;8.18;4.82;;;;;18.90;101444.00;;;;5068560;28;20634;-84
2021/10/28 10:07:10;;;;;;;7.65;4.68;;;;;19.00;101440.00;;;;5072460;28;20237;-85
2021/10/28 10:09:39;;;;;;;6.90;4.68;;;;;19.10;101444.00;;;;5088878;28;20210;-85
2021/10/28 10:12:09;;;;;;;6.47;4.88;;;;;19.20;101431.00;;;;5089269;28;20209;-86
2021/10/28 10:14:38;;;;;;;8.25;4.15;;;;;19.30;101428.00;;;;5073052;28;20720;-85
2021/10/28 10:17:08;;;;;;;5.75;4.78;;;;;19.40;101435.00;;;;5068847;28;20223;-85
2021/10/28 10:19:37;;;;;;;5.45;4.50;;;;;19.50;101412.00;;;;5076581;28;20227;-83
2021/10/28 10:22:17;;;;;;;6.93;4.55;;;;;19.60;101410.00;;;;5077869;28;20190;-83
2021/10/28 10:24:55;;;;;;;7.32;5.03;;;;;19.70;101413.00;;;;5075482;28;20202;-83
2021/10/28 11:05:06;;;;;;;5.72;4.40;;;;;21.00;101365.00;;;;5088919;28;20275;-86
2021/10/28 12:44:53;;;;;;;6.07;4.25;;;;;22.90;101244.00;;;;5103733;28;20200;-86
2021/10/28 13:04:12;;;;;;;4.40;3.72;;;;;25.70;101214.00;;;;5105070;28;20204;-86
2021/10/28 13:51:29;;;;;;;3.95;2.47;;;;;33.60;101179.00;;;;5028291;28;20748;-84
2021/10/28 14:33:53;;;;;;;3.80;2.00;;;;;27.00;101136.00;;;;5087753;28;20201;-86
2021/10/28 15:01:47;;;;;;;4.70;2.08;;;;;24.10;101106.00;;;;5085318;28;20206;-87
2021/10/28 15:29:01;;;;;;;3.00;1.25;;;;;22.70;101106.00;;;;5076462;28;20197;-87
2021/10/28 15:34:37;;;;;;;1.65;1.27;;;;;22.50;101102.00;;;;5084563;28;20213;-87
2021/10/28 15:37:09;;;;;;;2.00;1.10;;;;;22.40;101093.00;;;;5084721;28;20218;-87
2021/10/28 15:39:40;;;;;;;1.30;0.90;;;;;22.30;101093.00;;;;5082594;28;20282;-87
2021/10/28 15:48:48;;;;;;;2.50;1.45;;;;;22.00;101082.00;;;;5070812;28;20264;-87
2021/10/28 15:54:03;;;;;;;3.88;1.60;;;;;21.90;101077.00;;;;5074747;28;20205;-86
2021/10/28 15:56:47;;;;;;;1.67;1.35;;;;;21.80;101080.00;;;;5095846;28;20257;-85
2021/10/28 15:59:41;;;;;;;2.05;1.42;;;;;21.70;101078.00;;;;5081618;28;20194;-89
2021/10/28 16:21:51;;;;;;;3.92;1.90;;;;;21.10;101051.00;;;;5073836;28;21031;-82
2021/10/28 16:24:19;;;;;;;2.47;1.60;;;;;21.00;101052.00;;;;5075941;28;20293;-82
2021/10/28 16:26:47;;;;;;;2.72;1.40;;;;;20.90;101047.00;;;;5076480;28;20219;-82
2021/10/28 16:29:15;;;;;;;2.45;1.30;;;;;20.90;101042.00;;;;5080718;28;20202;-83
2021/10/28 16:31:51;;;;;;;3.08;1.70;;;;;20.80;101045.00;;;;5076024;28;20209;-83
2021/10/28 16:34:19;;;;;;;2.25;1.30;;;;;20.70;101040.00;;;;5073566;28;20314;-83
2021/10/28 16:36:48;;;;;;;4.22;1.58;;;;;20.70;101040.00;;;;5078030;28;20283;-81
2021/10/28 16:39:16;;;;;;;3.47;1.02;;;;;20.60;101042.00;;;;5075601;28;20652;-85
2021/10/28 16:41:46;;;;;;;1.48;1.20;;;;;20.50;101040.00;;;;5076614;28;20194;-83
2021/10/28 16:44:15;;;;;;;3.05;1.20;;;;;20.50;101041.00;;;;5080583;28;20198;-82
2021/10/28 16:46:43;;;;;;;2.83;1.40;;;;;20.40;101042.00;;;;5073695;28;20197;-81
2021/10/28 16:49:12;;;;;;;1.90;1.60;;;;;20.30;101033.00;;;;5086165;28;20198;-82
2021/10/28 16:51:39;;;;;;;1.92;1.27;;;;;20.30;101043.00;;;;5084481;28;20202;-81
2021/10/28 16:54:08;;;;;;;2.20;1.60;;;;;20.20;101037.00;;;;5073701;28;20210;-82
2021/10/28 16:56:35;;;;;;;2.03;1.55;;;;;20.10;101036.00;;;;5080207;28;20230;-81
2021/10/28 16:59:04;;;;;;;1.83;1.33;;;;;20.10;101039.00;;;;5083842;28;20183;-82
2021/10/28 17:01:31;;;;;;;2.60;1.48;;;;;20.00;101037.00;;;;5067967;28;20203;-81
2021/10/28 17:03:59;;;;;;;2.22;1.63;;;;;20.00;101037.00;;;;5068472;28;20187;-82
2021/10/28 17:06:26;;;;;;;3.22;1.65;;;;;19.90;101030.00;;;;5073984;28;20222;-82
2021/10/28 17:08:56;;;;;;;2.05;1.80;;;;;19.80;101024.00;;;;5087699;28;20207;-82
2021/10/28 17:11:26;;;;;;;2.10;1.70;;;;;19.70;101018.00;;;;5088327;28;20213;-82
2021/10/28 17:13:56;;;;;;;2.67;1.77;;;;;19.70;101018.00;;;;5086179;28;20194;-82
2021/10/28 17:16:23;;;;;;;3.42;1.95;;;;;19.60;101019.00;;;;5075470;28;20233;-82
2021/10/28 17:18:50;;;;;;;3.13;2.10;;;;;19.60;101022.00;;;;5070160;28;20233;-82
2021/10/28 17:21:17;;;;;;;3.05;2.15;;;;;19.50;101032.00;;;;5070861;28;20195;-82
2021/10/28 17:23:49;;;;;;;4.55;2.50;;;;;19.50;101020.00;;;;5071724;28;20210;-82
2021/10/28 17:26:17;;;;;;;2.97;2.00;;;;;19.40;101016.00;;;;5077379;28;20218;-82
2021/10/28 17:28:46;;;;;;;2.38;1.73;;;;;19.40;101017.00;;;;5076697;28;20692;-82
2021/10/28 17:31:13;;;;;;;2.47;1.65;;;;;19.40;101014.00;;;;5082846;28;20202;-82
2021/10/28 17:33:41;;;;;;;5.93;1.85;;;;;19.30;101016.00;;;;5091347;28;20202;-81
2021/10/28 17:36:08;;;;;;;3.38;2.00;;;;;19.30;101013.00;;;;5084547;28;20198;-82
2021/10/28 17:38:36;;;;;;;1.75;1.52;;;;;19.20;101014.00;;;;5071576;28;20195;-81
2021/10/28 17:41:06;;;;;;;2.75;2.22;;;;;19.20;101013.00;;;;5076827;28;20203;-83
2021/10/28 17:43:35;;;;;;;5.47;1.92;;;;;19.20;101005.00;;;;5077898;28;20244;-83
2021/10/28 17:46:06;;;;;;;5.03;2.78;;;;;19.10;101015.00;;;;5076309;28;20256;-83
2021/10/28 17:48:33;;;;;;;2.13;1.70;;;;;19.10;101010.00;;;;5073323;28;20203;-84
2021/10/28 17:51:01;;;;;;;3.58;2.17;;;;;19.00;101004.00;;;;5071153;28;20931;-83
2021/10/28 17:53:32;;;;;;;3.25;2.63;;;;;19.00;101007.00;;;;5071294;28;20203;-83
2021/10/28 17:56:02;;;;;;;2.97;2.53;;;;;18.90;101011.00;;;;5084810;28;20198;-84
2021/10/28 17:58:30;;;;;;;2.63;2.30;;;;;18.90;101011.00;;;;5086281;28;20957;-83
2021/10/28 18:00:57;;;;;;;3.00;2.42;;;;;18.90;101017.00;;;;5087802;28;20198;-83
2021/10/28 18:03:26;;;;;;;2.92;2.30;;;;;18.80;101011.00;;;;5091896;28;20206;-83
2021/10/28 18:05:53;;;;;;;4.15;2.47;;;;;18.80;101012.00;;;;5090800;28;20214;-84
2021/10/28 18:08:20;;;;;;;3.90;2.50;;;;;18.80;101010.00;;;;5090134;28;20229;-85
2021/10/28 18:10:48;;;;;;;6.50;2.38;;;;;18.70;101010.00;;;;5090788;28;20193;-84
2021/10/28 18:13:18;;;;;;;3.28;2.33;;;;;18.70;101012.00;;;;5074148;28;20211;-84
2021/10/28 18:15:45;;;;;;;3.95;2.63;;;;;18.70;101006.00;;;;5073182;28;20205;-83
2021/10/28 18:18:13;;;;;;;4.63;2.20;;;;;18.70;101013.00;;;;5087798;28;20245;-83
2021/10/28 18:20:42;;;;;;;3.33;2.83;;;;;18.60;101014.00;;;;5090489;28;20209;-83
2021/10/28 18:23:09;;;;;;;3.92;2.58;;;;;18.60;101013.00;;;;5071299;28;20206;-83
2021/10/28 18:25:37;;;;;;;3.38;2.53;;;;;18.60;101003.00;;;;5070455;28;20234;-83
2021/10/28 18:28:05;;;;;;;4.10;2.45;;;;;18.50;100994.00;;;;5080508;28;20203;-83
2021/10/28 18:30:36;;;;;;;2.50;2.05;;;;;18.50;101000.00;;;;5071003;28;20203;-83
2021/10/28 18:33:04;;;;;;;3.55;2.72;;;;;18.50;100996.00;;;;5085536;28;20309;-82
2021/10/28 18:35:32;;;;;;;3.72;2.95;;;;;18.50;100991.00;;;;5083040;28;20203;-83
2021/10/28 18:38:00;;;;;;;3.47;2.72;;;;;18.40;100994.00;;;;5073650;28;20691;-82
2021/10/28 18:40:28;;;;;;;4.55;3.28;;;;;18.40;100994.00;;;;5085654;28;20210;-83
2021/10/28 18:42:55;;;;;;;4.22;3.08;;;;;18.40;100992.00;;;;5070594;28;20232;-82
2021/10/28 18:45:22;;;;;;;4.65;2.85;;;;;18.40;100991.00;;;;5071283;28;20210;-83
2021/10/28 18:47:51;;;;;;;2.70;2.35;;;;;18.30;100984.00;;;;5073531;28;20686;-83
2021/10/28 18:50:18;;;;;;;3.47;3.10;;;;;18.30;100985.00;;;;5071632;28;20195;-82
2021/10/28 18:52:46;;;;;;;4.35;2.83;;;;;18.30;100986.00;;;;5070003;28;20203;-81
2021/10/28 18:55:14;;;;;;;4.68;3.50;;;;;18.20;100972.00;;;;5071316;28;20572;-83
2021/10/28 18:57:42;;;;;;;3.58;2.72;;;;;18.30;100985.00;;;;5069902;28;20587;-81
2021/10/28 19:00:11;;;;;;;2.80;2.50;;;;;18.20;100980.00;;;;5071030;28;20204;-82
2021/10/28 19:02:39;;;;;;;4.07;2.95;;;;;18.20;100983.00;;;;5070617;28;20791;-82
2021/10/28 19:05:07;;;;;;;3.67;2.75;;;;;18.20;100978.00;;;;5074069;28;20228;-82
2021/10/28 19:07:37;;;;;;;3.95;2.53;;;;;18.20;100985.00;;;;5081904;28;20218;-83
2021/10/28 19:10:05;;;;;;;4.82;3.45;;;;;18.20;100978.00;;;;5069278;28;20211;-83
2021/10/28 19:12:34;;;;;;;3.47;2.92;;;;;18.20;100973.00;;;;5088221;28;20201;-83
2021/10/28 19:15:02;;;;;;;3.58;3.10;;;;;18.20;100971.00;;;;5089594;28;20198;-83
2021/10/28 19:17:29;;;;;;;4.30;3.00;;;;;18.20;100977.00;;;;5089048;28;20764;-82
2021/10/28 19:19:56;;;;;;;3.63;3.20;;;;;18.20;100976.00;;;;5072427;28;20223;-84
2021/10/28 19:22:29;;;;;;;5.20;2.88;;;;;18.20;100968.00;;;;5078850;28;20199;-82
2021/10/28 19:25:00;;;;;;;5.55;3.08;;;;;18.10;100966.00;;;;5081479;28;20206;-83
2021/10/28 19:27:27;;;;;;;4.13;2.63;;;;;18.10;100969.00;;;;5083266;28;20226;-82
2021/10/28 19:30:01;;;;;;;4.25;3.30;;;;;18.10;100967.00;;;;5084264;28;20195;-82
2021/10/28 19:32:29;;;;;;;5.25;3.17;;;;;18.10;100965.00;;;;5068029;28;20309;-82
2021/10/28 19:34:57;;;;;;;4.55;3.03;;;;;18.10;100969.00;;;;5071277;28;20195;-82
2021/10/28 19:37:32;;;;;;;4.18;2.80;;;;;18.10;100958.00;;;;5079208;28;20218;-82
2021/10/28 19:40:15;;;;;;;3.90;2.83;;;;;18.10;100954.00;;;;5076673;28;20281;-82
2021/10/28 19:46:08;;;;;;;3.78;2.88;;;;;18.00;100961.00;;;;5080253;28;20198;-81
2021/10/28 19:48:20;;;;;;;4.55;2.42;;;;;18.00;100952.00;;;;5070363;28;20201;-83
2021/10/28 19:50:49;;;;;;;4.70;3.15;;;;;18.00;100951.00;;;;5073335;28;20198;-84
2021/10/28 19:53:17;;;;;;;5.43;2.70;;;;;18.00;100943.00;;;;5068440;28;20210;-83
2021/10/28 19:55:46;;;;;;;4.40;2.60;;;;;18.00;100957.00;;;;5069626;28;20660;-82
2021/10/28 19:58:18;;;;;;;3.38;2.78;;;;;18.00;100946.00;;;;5068738;28;20314;-84
2021/10/28 20:00:50;;;;;;;4.50;2.92;;;;;18.00;100943.00;;;;5080050;28;20198;-83
2021/10/28 20:03:27;;;;;;;3.70;2.72;;;;;18.00;100948.00;;;;5089172;28;20980;-83
2021/10/28 20:06:12;;;;;;;3.15;2.67;;;;;18.00;100946.00;;;;5080999;28;20239;-84
2021/10/28 20:14:18;;;;;;;3.03;2.25;;;;;18.00;100943.00;;;;5078587;28;20214;-84
2021/10/28 20:22:17;;;;;;;5.82;2.85;;;;;18.00;100941.00;;;;5068951;28;20210;-81
2021/10/28 20:24:45;;;;;;;4.25;2.67;;;;;18.10;100942.00;;;;5069114;28;20195;-82
2021/10/28 20:27:12;;;;;;;3.47;2.78;;;;;18.10;100936.00;;;;5074761;28;20230;-81